CheckWX is a tool to help pilots better visualize weather data.  It is not intended as a substitute for an official pre-flight weather briefing.

03:48:29 UTC

S32 METAR
Cooperstown Municipal Airport
Cooperstown, North Dakota, USA
Current

13 mins ago

KS32 230335Z AUTO 11009KT 2SM -SN CLR M12/M13 A3012 RMK AO2
Observed
Feb-23 @ 03:35 UTC
Wind
  • 110° at 9 KTS
Visibility
2 SM
Flight Rules
IFR
Conditions
Light Snow
Cloud Levels
  • Clear skies
Temperature
-12°C / 10°F
Dewpoint
-13°C / 9°F
Humidity
92%
Altimeter
30.12" Hg
Pressure
1020.02 hPa
Previous

33 mins ago

KS32 230315Z AUTO 10010KT 2 1/2SM -SN CLR M12/M13 A3012 RMK AO2
Observed
Feb-23 @ 03:15 UTC
Wind
  • 100° at 10 KTS
Visibility
2 1/2 SM
Flight Rules
IFR
Conditions
Light Snow
Cloud Levels
  • Clear skies
Temperature
-12°C / 10°F
Dewpoint
-13°C / 9°F
Humidity
92%
Altimeter
30.12" Hg
Pressure
1020.02 hPa
Previous

53 mins ago

KS32 230255Z AUTO 09010KT 3SM -SN CLR M12/M13 A3012 RMK AO2
Observed
Feb-23 @ 02:55 UTC
Wind
  • 090° at 10 KTS
Visibility
3 SM
Flight Rules
MVFR
Conditions
Light Snow
Cloud Levels
  • Clear skies
Temperature
-12°C / 10°F
Dewpoint
-13°C / 9°F
Humidity
92%
Altimeter
30.12" Hg
Pressure
1020.02 hPa